Terminal Aerodrome Forecast
Issued by NWS

Home | Current Version | Previous Version | Text Only | Print | Product List | Glossary Off
Versions: 1 2 3 4 5 6 7 8 9 10 11 12 13 14 15 16 17

000
FTUS43 KBIS 232300
TAFDIK
TAF
KDIK 232333Z 2400/2424 26009KT P6SM SCT250
     FM241400 30014KT P6SM -RA OVC035
     FM241800 30020G28KT 5SM -RA BR OVC018=

USA.gov is the U.S. government's official web portal to all federal, state and local government web resources and services.